createdAt,value
2016-11-13T00:00:01.222Z,73.1
2016-11-13T00:01:09.838Z,73.1
2016-11-13T00:02:18.437Z,73.1
2016-11-13T00:03:27.014Z,73.28
2016-11-13T00:04:35.634Z,73.1
2016-11-13T00:05:44.254Z,72.72
2016-11-13T00:06:52.889Z,72.72
2016-11-13T00:08:01.468Z,72.72
2016-11-13T00:09:10.081Z,72.91
2016-11-13T00:10:18.660Z,72.62
2016-11-13T00:11:27.263Z,72.72
2016-11-13T00:12:35.882Z,72.72
2016-11-13T00:13:44.795Z,73.19
2016-11-13T00:14:53.715Z,73.28
2016-11-13T00:16:02.320Z,73.19
2016-11-13T00:17:10.968Z,73.19
2016-11-13T00:18:19.587Z,72.91
2016-11-13T00:19:28.286Z,73.1
2016-11-13T00:20:36.910Z,73.28
2016-11-13T00:21:45.527Z,73.19
2016-11-13T00:22:54.117Z,73.1
2016-11-13T00:24:02.743Z,73.19
2016-11-13T00:25:11.367Z,73
2016-11-13T00:26:20.010Z,73.1
2016-11-13T00:27:28.603Z,73.28
2016-11-13T00:28:37.207Z,73.19
2016-11-13T00:29:45.840Z,73.19
2016-11-13T00:30:54.437Z,73.1
2016-11-13T00:32:03.057Z,73
2016-11-13T00:33:11.660Z,73.1
2016-11-13T00:34:20.263Z,73.19
2016-11-13T00:35:28.881Z,73.1
2016-11-13T00:36:37.487Z,73.1
2016-11-13T00:37:46.403Z,73.19
2016-11-13T00:38:55.013Z,72.72
2016-11-13T00:40:03.936Z,73.19
2016-11-13T00:41:12.533Z,72.81
2016-11-13T00:42:21.172Z,73.1
2016-11-13T00:43:29.801Z,73.28
2016-11-13T00:44:38.410Z,73.1
2016-11-13T00:45:47.019Z,73.19
2016-11-13T00:46:55.632Z,73.19
2016-11-13T00:48:04.249Z,73.1
2016-11-13T00:49:12.874Z,73.47
2016-11-13T00:50:21.495Z,73.1
2016-11-13T00:51:30.112Z,73.28
2016-11-13T00:52:38.713Z,73.19
2016-11-13T00:53:47.312Z,73.19
2016-11-13T00:54:55.925Z,73.19
2016-11-13T00:56:04.551Z,73.1
2016-11-13T00:57:13.176Z,73.28
2016-11-13T00:58:21.775Z,72.91
2016-11-13T00:59:30.385Z,72.72
2016-11-13T01:00:38.992Z,73
2016-11-13T01:01:47.602Z,72.72
2016-11-13T01:02:56.209Z,73.19
2016-11-13T01:04:04.820Z,73.1
2016-11-13T01:05:13.420Z,73.38
2016-11-13T01:06:22.025Z,73.28
2016-11-13T01:07:30.619Z,73.19
2016-11-13T01:08:39.221Z,73.28
2016-11-13T01:09:47.811Z,73.19
2016-11-13T01:10:56.403Z,73.28
2016-11-13T01:12:05.005Z,73.28
2016-11-13T01:13:13.618Z,73.19
2016-11-13T01:14:22.261Z,73.28
2016-11-13T01:15:30.881Z,73.19
2016-11-13T01:16:39.501Z,73.28
2016-11-13T01:17:48.147Z,73.1
2016-11-13T01:18:56.733Z,73.28
2016-11-13T01:20:05.319Z,73.19
2016-11-13T01:21:13.935Z,73.28
2016-11-13T01:22:22.583Z,73.19
2016-11-13T01:23:31.182Z,73.19
2016-11-13T01:24:39.808Z,72.91
2016-11-13T01:25:48.438Z,73.19
2016-11-13T01:26:57.028Z,73.19
2016-11-13T01:28:05.667Z,73.1
2016-11-13T01:29:14.284Z,73
2016-11-13T01:30:22.922Z,72.72
2016-11-13T01:31:31.508Z,73.1
2016-11-13T01:32:40.110Z,73.19
2016-11-13T01:33:48.722Z,73.19
2016-11-13T01:34:57.325Z,73.28
2016-11-13T01:36:05.939Z,73
2016-11-13T01:37:14.523Z,73.1
2016-11-13T01:38:23.139Z,73.28
2016-11-13T01:39:31.737Z,73.1
2016-11-13T01:40:40.374Z,73.28
2016-11-13T01:41:48.973Z,72.81
2016-11-13T01:42:57.569Z,73.1
2016-11-13T01:44:06.173Z,73.28
2016-11-13T01:45:14.772Z,73.28
2016-11-13T01:46:23.404Z,73.1
2016-11-13T01:47:32.004Z,73.1
2016-11-13T01:48:40.597Z,73.1
2016-11-13T01:49:49.204Z,73.28
2016-11-13T01:50:57.799Z,73.19
2016-11-13T01:52:06.395Z,73.28
2016-11-13T01:53:15.017Z,73.1
2016-11-13T01:54:23.630Z,73.75
2016-11-13T01:55:32.229Z,73.75
2016-11-13T01:56:40.855Z,73.19
2016-11-13T01:57:49.490Z,73
2016-11-13T01:58:58.094Z,73.1
2016-11-13T02:00:06.708Z,73.28
2016-11-13T02:01:15.332Z,73.1
2016-11-13T02:02:23.954Z,73.19
2016-11-13T02:03:32.530Z,73.1
2016-11-13T02:04:41.154Z,73.1
2016-11-13T02:05:50.084Z,73.75
2016-11-13T02:06:58.691Z,73.66
2016-11-13T02:08:07.289Z,73.66
2016-11-13T02:09:15.885Z,73.75
2016-11-13T02:10:24.479Z,73.19
2016-11-13T02:11:33.091Z,73.1
2016-11-13T02:12:41.712Z,73.19
2016-11-13T02:13:50.312Z,73.28
2016-11-13T02:14:58.935Z,73.19
2016-11-13T02:16:07.528Z,73.1
2016-11-13T02:17:16.137Z,73.19
2016-11-13T02:18:24.741Z,73.1
2016-11-13T02:19:33.345Z,73.28
2016-11-13T02:20:41.940Z,73.1
2016-11-13T02:21:50.554Z,73.1
2016-11-13T02:22:59.161Z,73.19
2016-11-13T02:24:07.763Z,73.47
2016-11-13T02:25:16.379Z,73.1
2016-11-13T02:26:25.001Z,73.1
2016-11-13T02:27:33.599Z,73.19
2016-11-13T02:28:42.192Z,73.94
2016-11-13T02:29:50.802Z,73.66
2016-11-13T02:30:59.428Z,73.85
2016-11-13T02:32:08.055Z,73.94
2016-11-13T02:33:16.648Z,73.75
2016-11-13T02:34:25.249Z,73.28
2016-11-13T02:35:33.869Z,73.85
2016-11-13T02:36:42.463Z,73.1
2016-11-13T02:37:51.061Z,73.28
2016-11-13T02:38:59.662Z,73.28
2016-11-13T02:40:08.300Z,73.19
2016-11-13T02:41:16.902Z,73.28
2016-11-13T02:42:25.497Z,73.1
2016-11-13T02:43:34.093Z,73.66
2016-11-13T02:44:42.717Z,73.47
2016-11-13T02:45:51.326Z,73.66
2016-11-13T02:46:59.951Z,73.1
2016-11-13T02:48:08.549Z,73.19
2016-11-13T02:49:17.140Z,73.1
2016-11-13T02:50:26.047Z,73.28
2016-11-13T02:51:34.657Z,73.75
2016-11-13T02:52:43.259Z,73.66
2016-11-13T02:53:51.844Z,73.47
2016-11-13T02:55:00.416Z,73.66
2016-11-13T02:56:09.041Z,73.19
2016-11-13T02:57:17.667Z,73.28
2016-11-13T02:58:26.291Z,73.66
2016-11-13T02:59:34.887Z,73.66
2016-11-13T03:00:43.533Z,73.38
2016-11-13T03:01:52.132Z,73.75
2016-11-13T03:03:00.764Z,73.28
2016-11-13T03:04:09.347Z,73.66
2016-11-13T03:05:17.959Z,73.66
2016-11-13T03:06:26.540Z,73.28
2016-11-13T03:07:35.157Z,73.57
2016-11-13T03:08:43.769Z,73.75
2016-11-13T03:09:52.381Z,73.28
2016-11-13T03:11:01.019Z,73.47
2016-11-13T03:12:09.644Z,73.47
2016-11-13T03:13:18.261Z,73.38
2016-11-13T03:14:26.857Z,73.66
2016-11-13T03:15:35.461Z,73.38
2016-11-13T03:16:44.074Z,73.47
2016-11-13T03:17:52.674Z,73.38
2016-11-13T03:19:01.275Z,73.66
2016-11-13T03:20:09.898Z,73.66
2016-11-13T03:21:18.534Z,73.57
2016-11-13T03:22:27.129Z,73.75
2016-11-13T03:23:35.730Z,73.66
2016-11-13T03:24:44.322Z,73.47
2016-11-13T03:25:52.937Z,73.38
2016-11-13T03:27:01.568Z,73.38
2016-11-13T03:28:10.179Z,73.38
2016-11-13T03:29:19.087Z,73.75
2016-11-13T03:30:27.708Z,73.66
2016-11-13T03:31:36.329Z,73.66
2016-11-13T03:32:44.942Z,73.66
2016-11-13T03:33:53.548Z,73.47
2016-11-13T03:35:02.195Z,73.57
2016-11-13T03:36:11.092Z,73.66
2016-11-13T03:37:19.708Z,73.57
2016-11-13T03:38:28.329Z,73.38
2016-11-13T03:39:36.932Z,73.47
2016-11-13T03:40:45.543Z,73.57
2016-11-13T03:41:54.170Z,73.57
2016-11-13T03:43:02.767Z,73.57
2016-11-13T03:44:11.382Z,73.66
2016-11-13T03:45:19.969Z,73.75
2016-11-13T03:46:28.616Z,73.66
2016-11-13T03:47:37.223Z,73.57
2016-11-13T03:48:45.832Z,73.47
2016-11-13T03:49:54.442Z,73.66
2016-11-13T03:51:03.025Z,73.47
2016-11-13T03:52:11.632Z,73.28
2016-11-13T03:53:20.247Z,73.57
2016-11-13T03:54:28.863Z,73.38
2016-11-13T03:55:37.464Z,73.47
2016-11-13T03:56:46.381Z,73.57
2016-11-13T03:57:54.963Z,73.57
2016-11-13T03:59:03.566Z,73.38
2016-11-13T04:00:12.169Z,73.47
2016-11-13T04:01:20.820Z,73.66
2016-11-13T04:02:29.444Z,73.57
2016-11-13T04:03:38.370Z,73.57
2016-11-13T04:04:46.985Z,73.38
2016-11-13T04:05:55.589Z,73.57
2016-11-13T04:07:04.207Z,73.47
2016-11-13T04:08:12.805Z,73.57
2016-11-13T04:09:21.417Z,73.38
2016-11-13T04:10:30.038Z,73.66
2016-11-13T04:11:38.644Z,73.57
2016-11-13T04:12:47.238Z,73.47
2016-11-13T04:13:55.847Z,73.38
2016-11-13T04:15:04.482Z,73.57
2016-11-13T04:16:13.094Z,73.38
2016-11-13T04:17:21.715Z,73.57
2016-11-13T04:18:30.319Z,73.66
2016-11-13T04:19:38.938Z,73.66
2016-11-13T04:20:47.556Z,73.57
2016-11-13T04:21:56.175Z,73.57
2016-11-13T04:23:04.792Z,73.38
2016-11-13T04:24:13.404Z,73.38
2016-11-13T04:25:22.013Z,73.38
2016-11-13T04:26:30.618Z,73.75
2016-11-13T04:27:39.212Z,73.85
2016-11-13T04:28:47.837Z,73.57
2016-11-13T04:29:56.454Z,73.28
2016-11-13T04:31:05.064Z,73.28
2016-11-13T04:32:13.669Z,73.38
2016-11-13T04:33:22.282Z,73.66
2016-11-13T04:34:30.862Z,73.66
2016-11-13T04:35:39.486Z,73.43
2016-11-13T04:36:48.107Z,73.43
2016-11-13T04:37:56.741Z,73.57
2016-11-13T04:39:05.324Z,73.53
2016-11-13T04:40:13.943Z,73.43
2016-11-13T04:41:22.561Z,73.38
2016-11-13T04:42:31.189Z,73.57
2016-11-13T04:43:39.805Z,73.57
2016-11-13T04:44:48.410Z,73.38
2016-11-13T04:45:57.024Z,73.57
2016-11-13T04:47:05.618Z,73.38
2016-11-13T04:48:14.218Z,73.34
2016-11-13T04:49:22.827Z,73.62
2016-11-13T04:50:31.435Z,73.62
2016-11-13T04:51:40.006Z,73.72
2016-11-13T04:52:48.577Z,73.62
2016-11-13T04:53:57.177Z,73.75
2016-11-13T04:55:05.795Z,73.72
2016-11-13T04:56:14.440Z,74.19
2016-11-13T04:57:23.062Z,73.57
2016-11-13T04:58:31.695Z,73.57
2016-11-13T04:59:40.349Z,73.62
2016-11-13T05:00:48.967Z,73.62
2016-11-13T05:01:57.571Z,73.53
2016-11-13T05:03:06.448Z,73.53
2016-11-13T05:04:15.089Z,73.62
2016-11-13T05:05:23.689Z,73.91
2016-11-13T05:06:32.308Z,73.53
2016-11-13T05:07:40.924Z,73.72
2016-11-13T05:08:49.515Z,73.72
2016-11-13T05:09:58.116Z,73.34
2016-11-13T05:11:06.728Z,73.34
2016-11-13T05:12:15.315Z,73.62
2016-11-13T05:13:23.920Z,73.53
2016-11-13T05:14:32.516Z,73.91
2016-11-13T05:15:41.113Z,73.53
2016-11-13T05:16:49.695Z,73.53
2016-11-13T05:17:58.316Z,73.72
2016-11-13T05:19:06.940Z,73.91
2016-11-13T05:20:15.559Z,73.91
2016-11-13T05:21:24.172Z,74
2016-11-13T05:22:32.794Z,74
2016-11-13T05:23:41.397Z,74
2016-11-13T05:24:50.019Z,74.1
2016-11-13T05:25:58.634Z,73.53
2016-11-13T05:27:07.223Z,73.34
2016-11-13T05:28:15.806Z,73.72
2016-11-13T05:29:24.431Z,73.43
2016-11-13T05:30:33.050Z,73.72
2016-11-13T05:31:41.637Z,73.34
2016-11-13T05:32:50.228Z,73.62
2016-11-13T05:33:58.804Z,73.25
2016-11-13T05:35:07.396Z,73.43
2016-11-13T05:36:15.980Z,73.62
2016-11-13T05:37:24.568Z,73.25
2016-11-13T05:38:33.190Z,73.72
2016-11-13T05:39:41.816Z,73.62
2016-11-13T05:40:50.439Z,73.53
2016-11-13T05:41:59.031Z,73.62
2016-11-13T05:43:07.674Z,73.62
2016-11-13T05:44:16.290Z,73.43
2016-11-13T05:45:24.891Z,73.91
2016-11-13T05:46:33.493Z,73.91
2016-11-13T05:47:42.122Z,73.53
2016-11-13T05:48:50.757Z,73.62
2016-11-13T05:49:59.374Z,73.53
2016-11-13T05:51:07.991Z,73.53
2016-11-13T05:52:16.552Z,73.62
2016-11-13T05:53:25.167Z,73.53
2016-11-13T05:54:33.767Z,73.62
2016-11-13T05:55:42.384Z,73.62
2016-11-13T05:56:50.980Z,73.62
2016-11-13T05:57:59.598Z,73.43
2016-11-13T05:59:08.215Z,73.81
2016-11-13T06:00:16.843Z,73.91
2016-11-13T06:01:25.448Z,74.19
2016-11-13T06:02:34.047Z,73.34
2016-11-13T06:03:42.638Z,73.34
2016-11-13T06:04:51.245Z,73.53
2016-11-13T06:05:59.832Z,73.53
2016-11-13T06:07:08.449Z,73.34
2016-11-13T06:08:17.062Z,73.43
2016-11-13T06:09:25.662Z,73.62
2016-11-13T06:10:34.280Z,73.91
2016-11-13T06:11:42.887Z,73.72
2016-11-13T06:12:51.510Z,73.72
2016-11-13T06:14:00.123Z,73.43
2016-11-13T06:15:08.740Z,74.1
2016-11-13T06:16:17.357Z,73.53
2016-11-13T06:17:25.957Z,73.94
2016-11-13T06:18:34.569Z,73.47
2016-11-13T06:19:43.186Z,73.25
2016-11-13T06:20:51.773Z,73.66
2016-11-13T06:22:00.402Z,73.72
2016-11-13T06:23:08.991Z,73.53
2016-11-13T06:24:17.617Z,73.91
2016-11-13T06:25:26.237Z,73.62
2016-11-13T06:26:34.831Z,73.62
2016-11-13T06:27:43.425Z,73.53
2016-11-13T06:28:52.039Z,73.53
2016-11-13T06:30:00.646Z,73.43
2016-11-13T06:31:09.256Z,73.62
2016-11-13T06:32:17.859Z,73.62
2016-11-13T06:33:26.464Z,73.72
2016-11-13T06:34:35.080Z,73.53
2016-11-13T06:35:43.727Z,73.66
2016-11-13T06:36:52.348Z,73.43
2016-11-13T06:38:00.957Z,73.34
2016-11-13T06:39:09.539Z,73.25
2016-11-13T06:40:18.136Z,73.43
2016-11-13T06:41:26.770Z,73.53
2016-11-13T06:42:35.357Z,73.94
2016-11-13T06:43:43.964Z,73.75
2016-11-13T06:44:52.621Z,73.53
2016-11-13T06:46:01.263Z,73.75
2016-11-13T06:47:09.886Z,73.66
2016-11-13T06:48:18.505Z,73.38
2016-11-13T06:49:27.130Z,73.28
2016-11-13T06:50:35.715Z,73.66
2016-11-13T06:51:44.299Z,73.66
2016-11-13T06:52:52.907Z,73.81
2016-11-13T06:54:01.519Z,73.75
2016-11-13T06:55:10.132Z,73.66
2016-11-13T06:56:18.758Z,73.47
2016-11-13T06:57:27.366Z,73.38
2016-11-13T06:58:35.970Z,73.66
2016-11-13T06:59:44.574Z,73.47
2016-11-13T07:00:53.165Z,73.85
2016-11-13T07:02:01.786Z,73.75
2016-11-13T07:03:10.402Z,73.66
2016-11-13T07:04:19.025Z,73.38
2016-11-13T07:05:27.653Z,73.38
2016-11-13T07:06:36.248Z,73.38
2016-11-13T07:07:44.860Z,73.66
2016-11-13T07:08:53.456Z,73.28
2016-11-13T07:10:02.060Z,73.66
2016-11-13T07:11:10.682Z,73.57
2016-11-13T07:12:19.290Z,73.75
2016-11-13T07:13:27.875Z,73.47
2016-11-13T07:14:36.540Z,73.57
2016-11-13T07:15:45.161Z,73.57
2016-11-13T07:16:53.765Z,73.38
2016-11-13T07:18:02.388Z,73.38
2016-11-13T07:19:11.021Z,73.66
2016-11-13T07:20:19.646Z,73.75
2016-11-13T07:21:28.271Z,73.66
2016-11-13T07:22:37.167Z,73.66
2016-11-13T07:23:45.818Z,73.66
2016-11-13T07:24:54.404Z,73.47
2016-11-13T07:26:03.011Z,73.66
2016-11-13T07:27:11.603Z,73.66
2016-11-13T07:28:20.226Z,73.57
2016-11-13T07:29:28.831Z,73.57
2016-11-13T07:30:37.989Z,73.66
2016-11-13T07:31:46.585Z,73.47
2016-11-13T07:32:55.208Z,73.38
2016-11-13T07:34:03.799Z,73.57
2016-11-13T07:35:12.392Z,73.38
2016-11-13T07:36:21.012Z,73.38
2016-11-13T07:37:29.617Z,73.57
2016-11-13T07:38:38.208Z,73.28
2016-11-13T07:39:46.810Z,73.38
2016-11-13T07:40:55.442Z,73.57
2016-11-13T07:42:04.053Z,73.94
2016-11-13T07:43:12.646Z,73.28
2016-11-13T07:44:21.231Z,73.75
2016-11-13T07:45:29.852Z,73.75
2016-11-13T07:46:38.433Z,73.19
2016-11-13T07:47:47.334Z,73.1
2016-11-13T07:48:55.970Z,73.66
2016-11-13T07:50:04.569Z,73.75
2016-11-13T07:51:13.194Z,73.47
2016-11-13T07:52:21.813Z,73.38
2016-11-13T07:53:30.436Z,73.47
2016-11-13T07:54:39.084Z,73.66
2016-11-13T07:55:47.674Z,73.57
2016-11-13T07:56:56.300Z,73.47
2016-11-13T07:58:04.921Z,73.47
2016-11-13T07:59:13.506Z,73.66
2016-11-13T08:00:22.116Z,73.38
2016-11-13T08:01:30.707Z,73.66
2016-11-13T08:02:39.304Z,73.75
2016-11-13T08:03:47.901Z,73.79
2016-11-13T08:04:56.485Z,73.69
2016-11-13T08:06:05.057Z,73.69
2016-11-13T08:07:13.663Z,73.6
2016-11-13T08:08:22.587Z,73.69
2016-11-13T08:09:31.207Z,73.69
2016-11-13T08:10:39.845Z,73.13
2016-11-13T08:11:48.449Z,73.22
2016-11-13T08:12:57.074Z,73.88
2016-11-13T08:14:05.655Z,73.69
2016-11-13T08:15:14.258Z,73.69
2016-11-13T08:16:22.859Z,73.79
2016-11-13T08:17:31.459Z,73.69
2016-11-13T08:18:40.451Z,73.79
2016-11-13T08:19:49.051Z,73.6
2016-11-13T08:20:57.675Z,73.51
2016-11-13T08:22:06.262Z,73.69
2016-11-13T08:23:14.906Z,73.13
2016-11-13T08:24:23.544Z,73.22
2016-11-13T08:25:32.124Z,73.13
2016-11-13T08:26:40.749Z,73.69
2016-11-13T08:27:49.357Z,73.6
2016-11-13T08:28:57.945Z,73.74
2016-11-13T08:30:06.554Z,73.32
2016-11-13T08:31:15.176Z,73.13
2016-11-13T08:32:23.775Z,73.32
2016-11-13T08:33:32.374Z,73.13
2016-11-13T08:34:40.971Z,73.17
2016-11-13T08:35:49.586Z,73.17
2016-11-13T08:36:58.184Z,73.36
2016-11-13T08:38:06.828Z,73.26
2016-11-13T08:39:15.436Z,73.55
2016-11-13T08:40:24.070Z,73.83
2016-11-13T08:41:32.686Z,73.36
2016-11-13T08:42:41.315Z,73.26
2016-11-13T08:43:49.918Z,73.36
2016-11-13T08:44:58.536Z,73.36
2016-11-13T08:46:07.161Z,73.36
2016-11-13T08:47:15.750Z,73.26
2016-11-13T08:48:24.370Z,73.74
2016-11-13T08:49:33.021Z,73.07
2016-11-13T08:50:41.665Z,72.98
2016-11-13T08:51:50.313Z,73.36
2016-11-13T08:52:58.913Z,73.36
2016-11-13T08:54:07.508Z,73.83
2016-11-13T08:55:16.119Z,73.83
2016-11-13T08:56:24.743Z,73.74
2016-11-13T08:57:33.368Z,73.36
2016-11-13T08:58:41.990Z,73.64
2016-11-13T08:59:50.604Z,73.74
2016-11-13T09:00:59.239Z,73.45
2016-11-13T09:02:07.854Z,73.55
2016-11-13T09:03:16.487Z,73.74
2016-11-13T09:04:25.091Z,73.64
2016-11-13T09:05:33.709Z,73.64
2016-11-13T09:06:42.329Z,73.74
2016-11-13T09:07:50.922Z,73.39
2016-11-13T09:08:59.507Z,73.17
2016-11-13T09:10:08.099Z,73.39
2016-11-13T09:11:16.710Z,73.21
2016-11-13T09:12:25.293Z,73.49
2016-11-13T09:13:33.923Z,73.58
2016-11-13T09:14:42.536Z,73.39
2016-11-13T09:15:51.182Z,73.39
2016-11-13T09:16:59.800Z,73.3
2016-11-13T09:18:08.694Z,74.05
2016-11-13T09:19:17.314Z,73.96
2016-11-13T09:20:25.928Z,73.3
2016-11-13T09:21:34.525Z,73.49
2016-11-13T09:22:43.127Z,73.49
2016-11-13T09:23:52.050Z,73.49
2016-11-13T09:25:00.668Z,73.77
2016-11-13T09:26:09.270Z,73.68
2016-11-13T09:27:17.869Z,73.39
2016-11-13T09:28:26.463Z,73.49
2016-11-13T09:29:35.071Z,73.77
2016-11-13T09:30:43.653Z,73.21
2016-11-13T09:31:52.276Z,73.39
2016-11-13T09:33:00.929Z,74.05
2016-11-13T09:34:09.861Z,73.58
2016-11-13T09:35:18.485Z,73.96
2016-11-13T09:36:27.085Z,73.58
2016-11-13T09:37:35.711Z,73.77
2016-11-13T09:38:44.328Z,73.58
2016-11-13T09:39:52.937Z,73.68
2016-11-13T09:41:01.545Z,73.68
2016-11-13T09:42:10.194Z,73.58
2016-11-13T09:43:18.801Z,73.49
2016-11-13T09:44:27.405Z,73.77
2016-11-13T09:45:36.005Z,73.77
2016-11-13T09:46:44.605Z,73.77
2016-11-13T09:47:53.223Z,73.58
2016-11-13T09:49:01.818Z,73.39
2016-11-13T09:50:10.401Z,73.71
2016-11-13T09:51:19.061Z,73.62
2016-11-13T09:52:27.683Z,73.71
2016-11-13T09:53:36.302Z,73.52
2016-11-13T09:54:44.927Z,74
2016-11-13T09:55:53.544Z,73.62
2016-11-13T09:57:02.167Z,73.62
2016-11-13T09:58:10.766Z,73.52
2016-11-13T09:59:19.397Z,73.81
2016-11-13T10:00:27.980Z,73.81
2016-11-13T10:01:36.593Z,73.62
2016-11-13T10:02:45.200Z,73.52
2016-11-13T10:03:54.088Z,73.52
2016-11-13T10:05:02.689Z,73.81
2016-11-13T10:06:11.311Z,73.9
2016-11-13T10:07:19.958Z,73.43
2016-11-13T10:08:28.581Z,73.81
2016-11-13T10:09:37.198Z,74
2016-11-13T10:10:46.169Z,73.71
2016-11-13T10:11:55.111Z,73.71
2016-11-13T10:13:03.717Z,73.71
2016-11-13T10:14:12.336Z,73.9
2016-11-13T10:15:20.956Z,73.81
2016-11-13T10:16:29.578Z,73.62
2016-11-13T10:17:38.191Z,73.43
2016-11-13T10:18:46.804Z,73.71
2016-11-13T10:19:55.793Z,73.81
2016-11-13T10:21:04.413Z,73.62
2016-11-13T10:22:13.009Z,73.81
2016-11-13T10:23:21.638Z,73.43
2016-11-13T10:24:30.273Z,73.52
2016-11-13T10:25:38.923Z,73.52
2016-11-13T10:26:47.535Z,73.62
2016-11-13T10:27:56.140Z,73.43
2016-11-13T10:29:04.749Z,73.71
2016-11-13T10:30:13.352Z,73.85
2016-11-13T10:31:21.962Z,73.75
2016-11-13T10:32:30.573Z,73.66
2016-11-13T10:33:39.241Z,73.85
2016-11-13T10:34:47.864Z,73.56
2016-11-13T10:35:56.509Z,73.85
2016-11-13T10:37:05.105Z,73.56
2016-11-13T10:38:13.706Z,73.56
2016-11-13T10:39:22.320Z,73.75
2016-11-13T10:40:30.964Z,73.66
2016-11-13T10:41:39.589Z,73.85
2016-11-13T10:42:48.239Z,73.85
2016-11-13T10:43:56.834Z,73.56
2016-11-13T10:45:05.450Z,73.66
2016-11-13T10:46:14.044Z,73.75
2016-11-13T10:47:22.641Z,73.94
2016-11-13T10:48:31.236Z,73.94
2016-11-13T10:49:39.854Z,74.32
2016-11-13T10:50:48.456Z,73.94
2016-11-13T10:51:57.084Z,74.22
2016-11-13T10:53:05.700Z,74.22
2016-11-13T10:54:14.324Z,73.85
2016-11-13T10:55:22.945Z,73.75
2016-11-13T10:56:31.551Z,73.75
2016-11-13T10:57:40.157Z,73.85
2016-11-13T10:58:48.768Z,73.85
2016-11-13T10:59:57.373Z,73.94
2016-11-13T11:01:06.015Z,73.47
2016-11-13T11:02:14.636Z,74.32
2016-11-13T11:03:23.260Z,73.66
2016-11-13T11:04:31.875Z,73.56
2016-11-13T11:05:40.483Z,73.56
2016-11-13T11:06:49.107Z,73.56
2016-11-13T11:07:57.726Z,73.75
2016-11-13T11:09:06.684Z,73.75
2016-11-13T11:10:15.294Z,73.75
2016-11-13T11:11:23.925Z,73.85
2016-11-13T11:12:32.852Z,73.85
2016-11-13T11:13:41.455Z,73.75
2016-11-13T11:14:50.077Z,73.85
2016-11-13T11:15:58.714Z,73.75
2016-11-13T11:17:07.348Z,73.75
2016-11-13T11:18:15.991Z,73.85
2016-11-13T11:19:24.617Z,73.85
2016-11-13T11:20:33.227Z,73.85
2016-11-13T11:21:41.829Z,73.85
2016-11-13T11:22:50.490Z,73.85
2016-11-13T11:23:59.109Z,73.94
2016-11-13T11:25:07.720Z,73.94
2016-11-13T11:26:16.332Z,73.75
2016-11-13T11:27:24.936Z,73.47
2016-11-13T11:28:33.550Z,73.94
2016-11-13T11:29:42.171Z,73.85
2016-11-13T11:30:50.772Z,73.85
2016-11-13T11:31:59.410Z,73.85
2016-11-13T11:33:08.012Z,73.94
2016-11-13T11:34:16.635Z,73.66
2016-11-13T11:35:25.245Z,73.66
2016-11-13T11:36:33.855Z,73.75
2016-11-13T11:37:42.469Z,73.56
2016-11-13T11:38:51.072Z,73.75
2016-11-13T11:39:59.681Z,73.75
2016-11-13T11:41:08.300Z,73.75
2016-11-13T11:42:16.905Z,73.56
2016-11-13T11:43:25.521Z,73.75
2016-11-13T11:44:34.143Z,73.75
2016-11-13T11:45:42.744Z,73.75
2016-11-13T11:46:51.367Z,73.47
2016-11-13T11:47:59.987Z,73.75
2016-11-13T11:49:08.586Z,73.66
2016-11-13T11:50:17.197Z,73.47
2016-11-13T11:51:25.804Z,73.69
2016-11-13T11:52:34.436Z,73.75
2016-11-13T11:53:43.031Z,73.85
2016-11-13T11:54:51.643Z,73.69
2016-11-13T11:56:00.289Z,73.88
2016-11-13T11:57:08.909Z,73.6
2016-11-13T11:58:17.528Z,73.6
2016-11-13T11:59:26.123Z,73.88
2016-11-13T12:00:34.749Z,73.41
2016-11-13T12:01:43.346Z,73.41
2016-11-13T12:02:51.953Z,73.32
2016-11-13T12:04:00.555Z,73.32
2016-11-13T12:05:09.182Z,73.41
2016-11-13T12:06:17.787Z,73.41
2016-11-13T12:07:26.398Z,73.88
2016-11-13T12:08:35.014Z,73.32
2016-11-13T12:09:43.613Z,73.41
2016-11-13T12:10:52.235Z,72.94
2016-11-13T12:12:00.873Z,73.13
2016-11-13T12:13:09.497Z,73.32
2016-11-13T12:14:18.128Z,73.32
2016-11-13T12:15:26.746Z,73.32
2016-11-13T12:16:35.354Z,73.41
2016-11-13T12:17:43.978Z,72.94
2016-11-13T12:18:52.599Z,72.85
2016-11-13T12:20:01.221Z,73.32
2016-11-13T12:21:10.162Z,73.6
2016-11-13T12:22:18.770Z,73.41
2016-11-13T12:23:27.704Z,72.94
2016-11-13T12:24:36.316Z,73.13
2016-11-13T12:25:44.907Z,72.94
2016-11-13T12:26:53.524Z,73.13
2016-11-13T12:28:02.123Z,72.94
2016-11-13T12:29:10.721Z,72.94
2016-11-13T12:30:19.314Z,73.13
2016-11-13T12:31:27.925Z,72.75
2016-11-13T12:32:36.530Z,73.13
2016-11-13T12:33:45.182Z,72.94
2016-11-13T12:34:53.776Z,72.94
2016-11-13T12:36:02.374Z,73.13
2016-11-13T12:37:10.967Z,72.85
2016-11-13T12:38:19.568Z,72.85
2016-11-13T12:39:28.203Z,72.85
2016-11-13T12:40:36.812Z,72.94
2016-11-13T12:41:45.420Z,72.56
2016-11-13T12:42:54.021Z,72.5
2016-11-13T12:44:02.622Z,72.31
2016-11-13T12:45:11.240Z,72.37
2016-11-13T12:46:19.863Z,72.75
2016-11-13T12:47:28.501Z,72.78
2016-11-13T12:48:37.125Z,72.66
2016-11-13T12:49:45.731Z,72.85
2016-11-13T12:50:54.321Z,72.97
2016-11-13T12:52:02.917Z,72.69
2016-11-13T12:53:11.540Z,72.56
2016-11-13T12:54:20.178Z,72.88
2016-11-13T12:55:28.810Z,72.41
2016-11-13T12:56:37.426Z,72.5
2016-11-13T12:57:46.062Z,72.5
2016-11-13T12:58:54.723Z,72.12
2016-11-13T13:00:03.646Z,72.5
2016-11-13T13:01:12.249Z,72.5
2016-11-13T13:02:20.857Z,72.41
2016-11-13T13:03:29.479Z,72.41
2016-11-13T13:04:38.127Z,72.31
2016-11-13T13:05:46.722Z,72.31
2016-11-13T13:06:55.340Z,72.6
2016-11-13T13:08:03.934Z,72.5
2016-11-13T13:09:12.537Z,72.5
2016-11-13T13:10:21.152Z,72.69
2016-11-13T13:11:29.776Z,72.41
2016-11-13T13:12:38.400Z,72.22
2016-11-13T13:13:47.032Z,72.41
2016-11-13T13:14:55.639Z,72.31
2016-11-13T13:16:04.253Z,72.41
2016-11-13T13:17:12.887Z,72.31
2016-11-13T13:18:21.603Z,72.41
2016-11-13T13:19:30.238Z,72.41
2016-11-13T13:20:38.864Z,72.31
2016-11-13T13:21:47.471Z,72.6
2016-11-13T13:22:56.087Z,72.69
2016-11-13T13:24:04.685Z,72.31
2016-11-13T13:25:13.280Z,72.6
2016-11-13T13:26:21.902Z,72.5
2016-11-13T13:27:30.524Z,72.69
2016-11-13T13:28:39.158Z,72.41
2016-11-13T13:29:47.779Z,72.12
2016-11-13T13:30:56.424Z,72.03
2016-11-13T13:32:05.026Z,72.31
2016-11-13T13:33:13.639Z,72.78
2016-11-13T13:34:22.568Z,72.41
2016-11-13T13:35:31.177Z,72.41
2016-11-13T13:36:39.810Z,72.22
2016-11-13T13:37:48.409Z,72.22
2016-11-13T13:38:57.034Z,72.31
2016-11-13T13:40:05.955Z,72.31
2016-11-13T13:41:14.576Z,72.12
2016-11-13T13:42:23.211Z,71.93
2016-11-13T13:43:31.828Z,72.12
2016-11-13T13:44:40.458Z,72.41
2016-11-13T13:45:49.083Z,72.5
2016-11-13T13:46:57.679Z,72.5
2016-11-13T13:48:06.276Z,72.5
2016-11-13T13:49:14.888Z,71.93
2016-11-13T13:50:23.518Z,72.5
2016-11-13T13:51:32.116Z,72.5
2016-11-13T13:52:40.718Z,72.09
2016-11-13T13:53:49.305Z,71.93
2016-11-13T13:54:57.919Z,71.99
2016-11-13T13:56:06.505Z,72.37
2016-11-13T13:57:15.126Z,72.56
2016-11-13T13:58:23.737Z,72.56
2016-11-13T13:59:32.368Z,72.28
2016-11-13T14:00:40.986Z,72.28
2016-11-13T14:01:49.633Z,71.99
2016-11-13T14:02:58.242Z,72.18
2016-11-13T14:04:06.868Z,72.47
2016-11-13T14:05:15.467Z,71.9
2016-11-13T14:06:24.088Z,72.47
2016-11-13T14:07:32.689Z,72.18
2016-11-13T14:08:41.336Z,72.28
2016-11-13T14:09:49.932Z,72.37
2016-11-13T14:10:58.547Z,72.18
2016-11-13T14:12:07.165Z,72.47
2016-11-13T14:13:15.800Z,72.28
2016-11-13T14:14:24.404Z,72.28
2016-11-13T14:15:33.036Z,71.99
2016-11-13T14:16:41.653Z,72.18
2016-11-13T14:17:50.253Z,72.47
2016-11-13T14:18:58.867Z,72.56
2016-11-13T14:20:07.467Z,72.66
2016-11-13T14:21:16.063Z,72.37
2016-11-13T14:22:24.663Z,72.47
2016-11-13T14:23:33.280Z,72.66
2016-11-13T14:24:41.905Z,72.47
2016-11-13T14:25:50.501Z,72.37
2016-11-13T14:26:59.122Z,72.47
2016-11-13T14:28:07.744Z,72.47
2016-11-13T14:29:16.365Z,72.47
2016-11-13T14:30:24.987Z,71.99
2016-11-13T14:31:33.587Z,72.18
2016-11-13T14:32:42.179Z,72.28
2016-11-13T14:33:50.817Z,72.56
2016-11-13T14:34:59.475Z,72.33
2016-11-13T14:36:08.094Z,72.62
2016-11-13T14:37:16.731Z,72.33
2016-11-13T14:38:25.360Z,72.14
2016-11-13T14:39:33.953Z,72.24
2016-11-13T14:40:42.558Z,72.33
2016-11-13T14:41:51.175Z,72.43
2016-11-13T14:42:59.790Z,72.43
2016-11-13T14:44:08.390Z,72.43
2016-11-13T14:45:17.003Z,72.52
2016-11-13T14:46:25.629Z,72.43
2016-11-13T14:47:34.225Z,72.24